Yuho Maru No.8 — JD3870 — position and weather

sailwx.info

Track history (hours):
 
Tides and Currents Weather Stations Pressure Air Temp Water Temp Dewpoint Dewpoint Depression Visibility Wind Speed Wind Dir Waves Ship Positions

Yuho Maru No.8

Last reported at 2017-Oct-19 06:05 UTC. Time now 2017-Oct-20 05:00 UTC.
Position N 34°37' E 135°00'.

Length 61 m; draft 4.4 m.

Type: Ship. MMSI: 431006905.

Date/timePositionNaut miles runAvg speedWind from/ knotsBaromVisibWave heightAir tempDewpointWater temp
2017-Oct-19 06:05N 34°37' E 135°00'1 8.8
2017-Oct-19 06:00N 34°37' E 135°01'4 8.3
2017-Oct-19 05:30N 34°35' E 135°06'611.4
2017-Oct-19 05:00N 34°34' E 135°12'611.7
2017-Oct-19 04:30N 34°33' E 135°19'5 9.0
2017-Oct-19 03:59N 34°32' E 135°25'0 0.0
2017-Oct-18 23:35N 34°32' E 135°25'0 0.6
2017-Oct-18 23:30N 34°32' E 135°25'1 1.6
2017-Oct-18 23:00N 34°31' E 135°24'0 0.0
2017-Oct-18 00:08N 34°31' E 135°24'0 0.3
2017-Oct-17 23:59N 34°31' E 135°24'2 4.2
2017-Oct-17 23:29N 34°32' E 135°23'3 3.5
2017-Oct-17 22:33N 34°33' E 135°19'0 0.0
2017-Oct-17 22:27N 34°33' E 135°19'0 0.0
2017-Oct-17 21:57N 34°33' E 135°19'0 0.0
2017-Oct-17 21:21N 34°33' E 135°19'0 0.0
2017-Oct-17 20:57N 34°33' E 135°19'0 0.0
2017-Oct-17 20:27N 34°33' E 135°19'0 0.0
2017-Oct-17 19:57N 34°33' E 135°19'0 0.0
2017-Oct-17 19:27N 34°33' E 135°19'0 0.0
2017-Oct-17 18:57N 34°33' E 135°19'0 0.0
2017-Oct-17 18:27N 34°33' E 135°19'0 0.0
2017-Oct-17 17:57N 34°33' E 135°19'0 0.0
2017-Oct-17 17:27N 34°33' E 135°19'0 0.0
2017-Oct-17 16:57N 34°33' E 135°19'0 0.0
2017-Oct-17 16:27N 34°33' E 135°19'0 0.0
2017-Oct-17 15:57N 34°33' E 135°19'0 0.0
2017-Oct-17 15:15N 34°33' E 135°19'0 0.0
2017-Oct-17 14:57N 34°33' E 135°19'0 0.0
2017-Oct-17 14:21N 34°33' E 135°19'0 0.0
2017-Oct-17 13:57N 34°33' E 135°19'0 0.0
2017-Oct-17 13:27N 34°33' E 135°19'0 0.0
2017-Oct-17 12:57N 34°33' E 135°19'0 0.0
2017-Oct-17 12:21N 34°33' E 135°19'0 0.0
2017-Oct-17 11:57N 34°33' E 135°19'0 0.0
2017-Oct-17 11:27N 34°33' E 135°19'0 0.0
2017-Oct-17 10:57N 34°33' E 135°19'0 0.0
2017-Oct-17 10:15N 34°33' E 135°19'0 0.0
2017-Oct-17 09:57N 34°33' E 135°19'0 0.0
2017-Oct-17 09:27N 34°33' E 135°19'0 0.0
2017-Oct-17 08:57N 34°33' E 135°19'0 0.0
2017-Oct-17 08:27N 34°33' E 135°19'0 1.0
2017-Oct-17 08:01N 34°33' E 135°18'612.2
2017-Oct-17 07:30N 34°34' E 135°11'612.6
2017-Oct-17 06:59N 34°36' E 135°03'  
2017-Oct-13 08:05N 34°48' E 139°09'212.5
2017-Oct-13 07:56N 34°49' E 139°10'1610.9
2017-Oct-13 06:25N 34°59' E 139°26'510.7
2017-Oct-13 06:00N 35°02' E 139°31'611.7
2017-Oct-13 05:30N 35°05' E 139°37'612.0
2017-Oct-13 05:00N 35°08' E 139°43'611.9
2017-Oct-13 04:31N 35°13' E 139°46'510.9
2017-Oct-13 04:01N 35°18' E 139°43'611.6
2017-Oct-13 03:31N 35°24' E 139°40'2 3.8
2017-Oct-13 02:59N 35°25' E 139°38'0 0.0
2017-Oct-13 02:29N 35°25' E 139°38'0 0.0
2017-Oct-13 01:56N 35°25' E 139°38'0 0.0
2017-Oct-13 01:29N 35°25' E 139°38'0 0.0
2017-Oct-13 00:59N 35°25' E 139°38'0 0.0
2017-Oct-13 00:29N 35°25' E 139°38'0 0.0
2017-Oct-13 00:00N 35°25' E 139°38'0 0.0
2017-Oct-12 23:30N 35°25' E 139°38'1 1.7
2017-Oct-12 23:00N 35°24' E 139°39'1 2.4
2017-Oct-12 22:30N 35°23' E 139°40'3 6.2
2017-Oct-12 22:00N 35°25' E 139°43'713.0
2017-Oct-12 21:30N 35°29' E 139°50'1 0.0
2017-Oct-10 19:12N 35°28' E 139°49'2 7.2
2017-Oct-10 18:59N 35°28' E 139°47'4 7.8
2017-Oct-10 18:30N 35°25' E 139°43'3 6.7
2017-Oct-10 18:00N 35°22' E 139°41'0 0.1
2017-Oct-10 17:30N 35°23' E 139°41'0 0.0
2017-Oct-10 15:32N 35°22' E 139°41'0 1.7
2017-Oct-10 15:30N 35°22' E 139°41'1 1.2
2017-Oct-10 15:00N 35°22' E 139°40'0 0.1
2017-Oct-10 13:56N 35°22' E 139°40'0 0.0
2017-Oct-10 13:26N 35°22' E 139°40'0 0.0
2017-Oct-10 12:50N 35°22' E 139°40'0 0.0
2017-Oct-10 12:26N 35°22' E 139°40'0 0.0
2017-Oct-10 11:56N 35°22' E 139°40'0 0.0
2017-Oct-10 11:26N 35°22' E 139°40'0 0.0
2017-Oct-10 10:50N 35°22' E 139°40'0 0.0
2017-Oct-10 10:26N 35°22' E 139°40'0 0.0
2017-Oct-10 09:56N 35°22' E 139°40'0 0.0
2017-Oct-10 09:26N 35°22' E 139°40'0 0.0
2017-Oct-10 08:38N 35°22' E 139°40'0 0.0
2017-Oct-10 08:26N 35°22' E 139°40'2 4.3
2017-Oct-10 07:59N 35°24' E 139°42'511.3
2017-Oct-10 07:30N 35°27' E 139°47'611.6
2017-Oct-10 06:59N 35°31' E 139°53'3 0.5
2017-Oct-10 01:01N 35°29' E 139°56'012.3
2017-Oct-10 00:59N 35°29' E 139°56'2 3.1
2017-Oct-10 00:28N 35°28' E 139°54'0 0.0
2017-Oct-09 23:34N 35°28' E 139°54'0 0.0
2017-Oct-09 23:28N 35°28' E 139°54'0 0.1
2017-Oct-09 22:58N 35°28' E 139°54'0 0.0
2017-Oct-09 22:28N 35°28' E 139°54'  
Track history (hours):
 
Tides and Currents Weather Stations Pressure Air Temp Water Temp Dewpoint Dewpoint Depression Visibility Wind Speed Wind Dir Waves Ship Positions

Yuho Maru No.8

Last reported at 2017-Oct-19 06:05 UTC. Time now 2017-Oct-20 05:00 UTC.
Position N 34°37' E 135°00'.

Length 61 m; draft 4.4 m.

Type: Ship. MMSI: 431006905.

Date/timePositionNaut miles runAvg speedWind from/ knotsBaromVisibWave heightAir tempDewpointWater temp
2017-Oct-19 06:05N 34°37' E 135°00'1 8.8
2017-Oct-19 06:00N 34°37' E 135°01'4 8.3
2017-Oct-19 05:30N 34°35' E 135°06'611.4
2017-Oct-19 05:00N 34°34' E 135°12'611.7
2017-Oct-19 04:30N 34°33' E 135°19'5 9.0
2017-Oct-19 03:59N 34°32' E 135°25'0 0.0
2017-Oct-18 23:35N 34°32' E 135°25'0 0.6
2017-Oct-18 23:30N 34°32' E 135°25'1 1.6
2017-Oct-18 23:00N 34°31' E 135°24'0 0.0
2017-Oct-18 00:08N 34°31' E 135°24'0 0.3
2017-Oct-17 23:59N 34°31' E 135°24'2 4.2
2017-Oct-17 23:29N 34°32' E 135°23'3 3.5
2017-Oct-17 22:33N 34°33' E 135°19'0 0.0
2017-Oct-17 22:27N 34°33' E 135°19'0 0.0
2017-Oct-17 21:57N 34°33' E 135°19'0 0.0
2017-Oct-17 21:21N 34°33' E 135°19'0 0.0
2017-Oct-17 20:57N 34°33' E 135°19'0 0.0
2017-Oct-17 20:27N 34°33' E 135°19'0 0.0
2017-Oct-17 19:57N 34°33' E 135°19'0 0.0
2017-Oct-17 19:27N 34°33' E 135°19'0 0.0
2017-Oct-17 18:57N 34°33' E 135°19'0 0.0
2017-Oct-17 18:27N 34°33' E 135°19'0 0.0
2017-Oct-17 17:57N 34°33' E 135°19'0 0.0
2017-Oct-17 17:27N 34°33' E 135°19'0 0.0
2017-Oct-17 16:57N 34°33' E 135°19'0 0.0
2017-Oct-17 16:27N 34°33' E 135°19'0 0.0
2017-Oct-17 15:57N 34°33' E 135°19'0 0.0
2017-Oct-17 15:15N 34°33' E 135°19'0 0.0
2017-Oct-17 14:57N 34°33' E 135°19'0 0.0
2017-Oct-17 14:21N 34°33' E 135°19'0 0.0
2017-Oct-17 13:57N 34°33' E 135°19'0 0.0
2017-Oct-17 13:27N 34°33' E 135°19'0 0.0
2017-Oct-17 12:57N 34°33' E 135°19'0 0.0
2017-Oct-17 12:21N 34°33' E 135°19'0 0.0
2017-Oct-17 11:57N 34°33' E 135°19'0 0.0
2017-Oct-17 11:27N 34°33' E 135°19'0 0.0
2017-Oct-17 10:57N 34°33' E 135°19'0 0.0
2017-Oct-17 10:15N 34°33' E 135°19'0 0.0
2017-Oct-17 09:57N 34°33' E 135°19'0 0.0
2017-Oct-17 09:27N 34°33' E 135°19'0 0.0
2017-Oct-17 08:57N 34°33' E 135°19'0 0.0
2017-Oct-17 08:27N 34°33' E 135°19'0 1.0
2017-Oct-17 08:01N 34°33' E 135°18'612.2
2017-Oct-17 07:30N 34°34' E 135°11'612.6
2017-Oct-17 06:59N 34°36' E 135°03'  
2017-Oct-13 08:05N 34°48' E 139°09'212.5
2017-Oct-13 07:56N 34°49' E 139°10'1610.9
2017-Oct-13 06:25N 34°59' E 139°26'510.7
2017-Oct-13 06:00N 35°02' E 139°31'611.7
2017-Oct-13 05:30N 35°05' E 139°37'612.0
2017-Oct-13 05:00N 35°08' E 139°43'611.9
2017-Oct-13 04:31N 35°13' E 139°46'510.9
2017-Oct-13 04:01N 35°18' E 139°43'611.6
2017-Oct-13 03:31N 35°24' E 139°40'2 3.8
2017-Oct-13 02:59N 35°25' E 139°38'0 0.0
2017-Oct-13 02:29N 35°25' E 139°38'0 0.0
2017-Oct-13 01:56N 35°25' E 139°38'0 0.0
2017-Oct-13 01:29N 35°25' E 139°38'0 0.0
2017-Oct-13 00:59N 35°25' E 139°38'0 0.0
2017-Oct-13 00:29N 35°25' E 139°38'0 0.0
2017-Oct-13 00:00N 35°25' E 139°38'0 0.0
2017-Oct-12 23:30N 35°25' E 139°38'1 1.7
2017-Oct-12 23:00N 35°24' E 139°39'1 2.4
2017-Oct-12 22:30N 35°23' E 139°40'3 6.2
2017-Oct-12 22:00N 35°25' E 139°43'713.0
2017-Oct-12 21:30N 35°29' E 139°50'1 0.0
2017-Oct-10 19:12N 35°28' E 139°49'2 7.2
2017-Oct-10 18:59N 35°28' E 139°47'4 7.8
2017-Oct-10 18:30N 35°25' E 139°43'3 6.7
2017-Oct-10 18:00N 35°22' E 139°41'0 0.1
2017-Oct-10 17:30N 35°23' E 139°41'0 0.0
2017-Oct-10 15:32N 35°22' E 139°41'0 1.7
2017-Oct-10 15:30N 35°22' E 139°41'1 1.2
2017-Oct-10 15:00N 35°22' E 139°40'0 0.1
2017-Oct-10 13:56N 35°22' E 139°40'0 0.0
2017-Oct-10 13:26N 35°22' E 139°40'0 0.0
2017-Oct-10 12:50N 35°22' E 139°40'0 0.0
2017-Oct-10 12:26N 35°22' E 139°40'0 0.0
2017-Oct-10 11:56N 35°22' E 139°40'0 0.0
2017-Oct-10 11:26N 35°22' E 139°40'0 0.0
2017-Oct-10 10:50N 35°22' E 139°40'0 0.0
2017-Oct-10 10:26N 35°22' E 139°40'0 0.0
2017-Oct-10 09:56N 35°22' E 139°40'0 0.0
2017-Oct-10 09:26N 35°22' E 139°40'0 0.0
2017-Oct-10 08:38N 35°22' E 139°40'0 0.0
2017-Oct-10 08:26N 35°22' E 139°40'2 4.3
2017-Oct-10 07:59N 35°24' E 139°42'511.3
2017-Oct-10 07:30N 35°27' E 139°47'611.6
2017-Oct-10 06:59N 35°31' E 139°53'3 0.5
2017-Oct-10 01:01N 35°29' E 139°56'012.3
2017-Oct-10 00:59N 35°29' E 139°56'2 3.1
2017-Oct-10 00:28N 35°28' E 139°54'0 0.0
2017-Oct-09 23:34N 35°28' E 139°54'0 0.0
2017-Oct-09 23:28N 35°28' E 139°54'0 0.1
2017-Oct-09 22:58N 35°28' E 139°54'0 0.0
2017-Oct-09 22:28N 35°28' E 139°54'  

Dump ship's entire track history